• Join FlightAware (Why Join?)
  • Login
  • US Flag 
05:43AM EDT


 

Airport Tracker/Info


-or-


 

Live Flight TrackerFlight Track Log ✈ N593JB ✈ 13-May-2012 ✈ TJSJ / SJU - KMCO

Flight Track Log - Related Links

Times and Time Zones

All times are in EDT time to prevent confusion due to time zone crossing. See the N593JB flight status page for this flight to view local times or setup timezone preferences in your user account.

Time Position Orientation Groundspeed Altitude Reporting Facility
EDT Latitude Longitude Course Direction KTS MPH feet Rate Location/Type
07:13AM 18.4500 -65.9667 315° West 160 184 1,200  Level San Juan Center
07:18AM 18.7333 -66.2667 298° West 370 426 12,400 2,220 Climbing San Juan Center
07:19AM 18.7833 -66.3667 310° West 380 437 14,700 2,160 Climbing San Juan Center
07:20AM 18.8500 -66.4500 294° West 380 437 16,800 1,800 Climbing San Juan Center
07:21AM 18.9000 -66.5667 305° West 400 460 18,300 1,740 Climbing San Juan Center
07:22AM 18.9667 -66.6667 298° West 410 472 20,400 1,620 Climbing San Juan Center
07:23AM 19.0167 -66.7667 305° West 410 472 21,600 1,200 Climbing San Juan Center
07:24AM 19.0833 -66.8667 301° West 420 483 22,900 1,140 Climbing San Juan Center
07:25AM 19.1500 -66.9833 298° West 430 495 23,900 540 Climbing San Juan Center
07:26AM 19.2000 -67.0833 298° West 440 506 24,000  Climbing San Juan Center
07:27AM 19.2500 -67.1833 301° West 440 506 24,000  Level San Juan Center
07:28AM 19.3167 -67.3000 301° West 450 518 24,000  Level San Juan Center
07:29AM 19.3833 -67.4167 305° West 450 518 24,000 1,140 Level San Juan Center
07:30AM 19.4500 -67.5167 294° West 440 506 26,300 1,860 Climbing San Juan Center
07:31AM 19.5000 -67.6333 305° West 410 472 27,800 1,200 Climbing San Juan Center
07:32AM 19.5667 -67.7333 304° West 420 483 28,800 1,020 Climbing San Juan Center
07:33AM 19.6500 -67.8667 298° West 430 495 29,900 960 Climbing San Juan Center
07:34AM 19.7000 -67.9667 303° West 440 506 30,800 900 Climbing San Juan Center
07:36AM 19.8333 -68.1822 300° West 447 514 32,600 1,020 Climbing Miami Center
07:37AM 19.8956 -68.2950 301° West 447 514 33,700 900 Climbing Miami Center
07:38AM 19.9578 -68.4056 303° West 442 509 34,400 900 Climbing Miami Center
07:39AM 20.0217 -68.5117 302° West 436 502 35,600 780 Climbing Miami Center
07:40AM 20.0833 -68.6161 302° West 429 494 36,000 120 Climbing Miami Center
07:41AM 20.1475 -68.7267 302° West 429 494 35,900 -60 Descending Miami Center
07:42AM 20.2114 -68.8356 300° West 429 494 35,900  Level Miami Center
07:43AM 20.2733 -68.9486 303° West 435 501 35,900  Level Miami Center
07:44AM 20.3392 -69.0575 299° West 435 501 35,900  Level Miami Center
07:45AM 20.3992 -69.1711 303° West 435 501 35,900  Level Miami Center
07:46AM 20.4647 -69.2803 301° West 435 501 35,900  Level Miami Center
07:47AM 20.5264 -69.3917 302° West 435 501 35,900  Level Miami Center
07:48AM 20.5900 -69.5011 302° West 429 494 36,000  Climbing Miami Center
07:49AM 20.6533 -69.6106 299° West 429 494 35,900  Descending Miami Center
07:50AM 20.7131 -69.7247 302° West 429 494 36,000  Climbing Miami Center
07:51AM 20.7764 -69.8344 302° West 429 494 35,900 -60 Descending Miami Center
07:52AM 20.8394 -69.9442 300° West 429 494 35,900  Level Miami Center
07:53AM 20.9008 -70.0564 302° West 429 494 35,900  Level Miami Center
07:54AM 20.9661 -70.1683 300° West 429 494 36,000  Climbing Miami Center
07:55AM 21.0250 -70.2789 302° West 429 494 35,900 -60 Descending Miami Center
07:56AM 21.0881 -70.3889 301° West 429 494 35,900  Level Miami Center
07:57AM 21.1489 -70.4972 300° West 429 494 35,900  Level Miami Center
07:58AM 21.2097 -70.6100 302° West 429 494 36,000  Climbing Miami Center
07:59AM 21.2703 -70.7139 301° West 429 494 35,900 -60 Descending Miami Center
08:00AM 21.3311 -70.8244 301° West 429 494 35,900  Level Miami Center
08:01AM 21.3936 -70.9353 301° West 429 494 36,000  Climbing Miami Center
08:02AM 21.4431 -71.0244 301° West 429 494 36,000  Level Miami Center
08:03AM 21.5100 -71.1419 300° West 429 494 36,000 -60 Level Miami Center
08:04AM 21.5750 -71.2639 300° West 451 519 35,900 -60 Descending Miami Center
08:05AM 21.6331 -71.3731 300° West 440 506 35,900  Level Miami Center
08:06AM 21.6933 -71.4844 301° West 435 501 35,900  Level Miami Center
08:07AM 21.7558 -71.5958 301° West 429 494 36,000  Climbing Miami Center
08:08AM 21.8158 -71.7053 301° West 429 494 35,900 -60 Descending Miami Center
08:09AM 21.8781 -71.8169 300° West 429 494 35,900  Level Miami Center
08:10AM 21.9381 -71.9308 301° West 429 494 35,900  Level Miami Center
08:11AM 22.0000 -72.0428 300° West 429 494 36,000  Climbing Miami Center
08:12AM 22.0619 -72.1567 301° West 429 494 36,000  Level Miami Center
08:13AM 22.1239 -72.2689 299° West 429 494 36,000  Level Miami Center
08:14AM 22.1836 -72.3833 300° West 429 494 36,000 -60 Level Miami Center
08:15AM 22.2433 -72.4956 301° West 429 494 35,900  Descending Miami Center
08:16AM 22.3072 -72.6103 299° West 434 499 36,000  Climbing Miami Center
08:17AM 22.3644 -72.7228 302° West 429 494 36,000 -60 Level Miami Center
08:18AM 22.4281 -72.8331 299° West 429 494 35,900 -60 Descending Miami Center
08:19AM 22.4853 -72.9458 301° West 429 494 35,900  Level Miami Center
08:20AM 22.5467 -73.0586 300° West 429 494 35,900  Level Miami Center
08:21AM 22.6058 -73.1694 300° West 429 494 36,000  Climbing Miami Center
08:22AM 22.6669 -73.2825 298° West 429 494 35,900  Descending Miami Center
08:23AM 22.7217 -73.3933 301° West 429 494 36,000  Climbing Miami Center
08:24AM 22.7828 -73.5044 301° West 429 494 35,900 -60 Descending Miami Center
08:25AM 22.8436 -73.6156 300° West 429 494 35,900  Level Miami Center
08:26AM 22.9022 -73.7267 299° West 424 488 36,000  Climbing Miami Center
08:27AM 22.9589 -73.8381 301° West 424 488 35,900 -60 Descending Miami Center
08:28AM 23.0194 -73.9472 298° West 424 488 35,900  Level Miami Center
08:29AM 23.0739 -74.0589 302° West 424 488 35,900  Level Miami Center
08:30AM 23.1344 -74.1661 299° West 424 488 36,000  Climbing Miami Center
08:31AM 23.1906 -74.2756 298° West 424 488 35,900 -60 Descending Miami Center
08:32AM 23.2447 -74.3853 300° West 418 481 35,900  Level Miami Center
08:33AM 23.3028 -74.4950 299° West 418 481 35,900  Level Miami Center
08:34AM 23.3589 -74.6072 300° West 413 475 36,000  Climbing Miami Center
08:35AM 23.4169 -74.7169 300° West 413 475 36,000 -60 Level Miami Center
08:36AM 23.4750 -74.8269 299° West 413 475 35,900 -60 Descending Miami Center
08:37AM 23.5306 -74.9350 300° West 413 475 35,900  Level Miami Center
08:38AM 23.5883 -75.0450 299° West 413 475 36,000  Climbing Miami Center
08:39AM 23.6461 -75.1578 300° West 413 475 36,000 -60 Level Miami Center
08:40AM 23.7039 -75.2658 299° West 413 475 35,900 -60 Descending Miami Center
08:41AM 23.7592 -75.3764 299° West 413 475 35,900  Level Miami Center
08:42AM 23.8167 -75.4892 299° West 413 475 36,000  Climbing Miami Center
08:43AM 23.8742 -75.6022 300° West 413 475 36,000 -60 Level Miami Center
08:44AM 23.9317 -75.7131 297° West 413 475 35,900 -60 Descending Miami Center
08:45AM 23.9847 -75.8264 300° West 413 475 35,900  Level Miami Center
08:46AM 24.0439 -75.9394 298° West 413 475 36,000  Climbing Miami Center
08:47AM 24.0989 -76.0508 299° West 413 475 36,000  Level Miami Center
08:48AM 24.1558 -76.1642 298° West 418 481 36,000 -240 Level Miami Center
08:49AM 24.2106 -76.2756 299° West 418 481 35,600 -720 Descending Miami Center
08:50AM 24.2675 -76.3892 299° West 418 481 34,600 -1,020 Descending Miami Center
08:51AM 24.3264 -76.5053 298° West 418 481 33,600 -1,020 Descending Miami Center
08:52AM 24.3808 -76.6192 299° West 424 488 32,600 -900 Descending Miami Center
08:53AM 24.4375 -76.7333 297° West 429 494 31,900 -360 Descending Miami Center
08:54AM 24.4919 -76.8519 299° West 429 494 31,900  Level Miami Center
08:55AM 24.5503 -76.9661 299° West 429 494 31,900  Level Miami Center
08:56AM 24.6067 -77.0783 298° West 424 488 31,900  Level Miami Center
08:57AM 24.6631 -77.1950 298° West 429 494 31,900  Level Miami Center
08:58AM 24.7233 -77.3208 297° West 429 494 31,900  Level Miami Center
08:59AM 24.7731 -77.4264 298° West 429 494 32,000  Climbing Miami Center
09:00AM 24.8289 -77.5433 298° West 429 494 32,000 -60 Level Miami Center
09:01AM 24.8869 -77.6628 299° West 429 494 31,900 -60 Descending Miami Center
09:02AM 24.9447 -77.7778 299° West 429 494 31,900  Level Miami Center
09:03AM 25.0025 -77.8908 298° West 429 494 31,900  Level Miami Center
09:04AM 25.0581 -78.0081 298° West 429 494 32,000  Climbing Miami Center
09:05AM 25.1136 -78.1233 298° West 429 494 32,000 -60 Level Miami Center
09:06AM 25.1711 -78.2411 297° West 429 494 31,900  Descending Miami Center
09:07AM 25.2242 -78.3567 299° West 429 494 32,000  Climbing Miami Center
09:08AM 25.2836 -78.4744 298° West 429 494 32,000 -60 Level Miami Center
09:09AM 25.3386 -78.5903 297° West 429 494 31,900 -60 Descending Miami Center
09:10AM 25.3936 -78.7083 299° West 429 494 31,900  Level Miami Center
09:11AM 25.4508 -78.8242 298° West 429 494 31,900  Level Miami Center
09:12AM 25.5117 -78.9519 297° West 434 499 31,900  Level Miami Center
09:13AM 25.5664 -79.0703 299° West 434 499 31,900  Level Miami Center
09:14AM 25.6250 -79.1889 297° West 434 499 31,900 -60 Level Miami Center
09:15AM 25.6817 -79.3100 297° West 434 499 31,800 -600 Descending Miami Center
09:16AM 25.7361 -79.4264 296° West 434 499 30,800 -960 Descending Miami Center
09:17AM 25.7883 -79.5450 298° West 428 493 29,900 -480 Descending Miami Center
09:18AM 25.8425 -79.6594 298° West 428 493 29,900  Level Miami Center
09:19AM 25.8967 -79.7739 296° West 428 493 29,900  Level Miami Center
09:20AM 25.9486 -79.8931 298° West 428 493 29,900  Level Miami Center
09:21AM 26.0047 -80.0100 307° West 428 493 29,900  Level Miami Center
09:22AM 26.0753 -80.1158 325° Northwest 428 493 29,900  Level Miami Center
09:23AM 26.1739 -80.1928 343° North 420 483 29,900 -300 Level Miami Center
09:24AM 26.2878 -80.2328 341° North 415 478 29,400 -960 Descending Miami Center
09:25AM 26.3997 -80.2756 343° North 421 484 28,000 -1,560 Descending Miami Center
09:26AM 26.5117 -80.3136 343° North 421 484 26,300 -1,560 Descending Miami Center
09:27AM 26.6214 -80.3517 332° Northwest 415 478 24,900 -1,800 Descending Miami Center
09:28AM 26.7181 -80.4103 326° Northwest 400 460 22,800 -1,980 Descending Miami Center
09:29AM 26.8064 -80.4758 324° Northwest 390 449 21,000 -1,800 Descending Miami Center
09:30AM 26.8942 -80.5461 330° Northwest 390 449 19,200 -1,680 Descending Miami Center
09:31AM 26.9786 -80.6000 335° Northwest 368 423 17,700 -1,200 Descending Miami Center
09:32AM 27.0650 -80.6447 334° Northwest 344 396 16,900 -360 Descending Miami Center
09:33AM 27.1475 -80.6894 335° Northwest 344 396 17,000  Climbing Miami Center
09:34AM 27.2339 -80.7344 334° Northwest 344 396 17,000 -60 Level Miami Center
09:35AM 27.3306 -80.7867 334° Northwest 344 396 16,900 -60 Descending Miami Center
09:36AM 27.4192 -80.8364 336° Northwest 344 396 16,900  Level Miami Center
09:37AM 27.5075 -80.8817 335° Northwest 344 396 16,900 -360 Level Miami Center
09:38AM 27.5939 -80.9269 336° Northwest 344 396 16,200 -900 Descending Miami Center
09:39AM 27.6722 -80.9672 333° Northwest 344 396 15,200 -960 Descending Miami Center
09:40AM 27.7564 -81.0147 332° Northwest 336 387 14,300 -1,260 Descending Miami Center
09:42AM 27.9000 -81.1000 344° North 333 383 11,900 -1,200 Descending Orlando TRACON
09:43AM 28.0000 -81.1333 350° North 331 381 10,900 -720 Descending Orlando TRACON
09:44AM 28.0833 -81.1500 336° Northwest 328 377 10,500 -720 Descending Orlando TRACON
09:45AM 28.1500 -81.1833 360° North 292 336 9,600 -900 Descending Orlando TRACON
09:46AM 28.2333 -81.1833 360° North 288 331 8,800 -1,140 Descending Orlando TRACON
09:47AM 28.3167 -81.1833 360° North 278 320 7,400 -1,920 Descending Orlando TRACON
09:48AM 28.3833 -81.1833 360° North 276 318 5,000 -1,800 Descending Orlando TRACON
09:49AM 28.4667 -81.1833 327° Northwest 283 326 3,900 -720 Descending Orlando TRACON
09:50AM 28.5333 -81.2333 319° Northwest 258 297 3,600 -780 Descending Orlando TRACON
09:51AM 28.5833 -81.2833 221° Southwest 224 258 2,400 -600 Descending Orlando TRACON
09:52AM 28.5500 -81.3167 180° South 154 177 2,400 -600 Level Orlando TRACON
09:53AM 28.5000 -81.3167 180° South 142 163 1,300 -1,080 Descending Orlando TRACON
09:53AM 28.4667 -81.3167 180° South 139 160 500 -900 Descending Orlando TRACON